Time;durP1;ratioP1;P1;durP2;ratioP2;P2;SDS_P1;SDS_P2;PMS_P1;PMS_P2;Temp;Humidity;BMP_temperature;BMP_pressure;BME280_temperature;BME280_humidity;BME280_pressure;Samples;Min_cycle;Max_cycle;Signal;HPM_P1;HPM_P2
2022/01/07 00:01:06;;;;;;;;;;;2.80;99.90;;;;;;5008579;28;20060;-69
2022/01/07 00:03:33;;;;;;;;;;;2.80;99.90;;;;;;5008839;28;20169;-70
2022/01/07 00:06:01;;;;;;;;;;;2.80;99.90;;;;;;5008455;28;20067;-69
2022/01/07 00:08:28;;;;;;;;;;;2.80;99.90;;;;;;5025311;28;20099;-69
2022/01/07 00:10:57;;;;;;;;;;;2.80;99.90;;;;;;5009151;28;20060;-70
2022/01/07 00:13:24;;;;;;;;;;;2.80;99.90;;;;;;5008440;28;20059;-70
2022/01/07 00:15:53;;;;;;;;;;;2.90;99.90;;;;;;5009069;28;20076;-69
2022/01/07 00:18:21;;;;;;;;;;;3.00;99.90;;;;;;5008171;28;20051;-70
2022/01/07 00:20:48;;;;;;;;;;;3.00;99.90;;;;;;5024984;28;21150;-70
2022/01/07 00:23:15;;;;;;;;;;;3.00;99.90;;;;;;5008386;28;21019;-70
2022/01/07 00:25:42;;;;;;;;;;;3.10;99.90;;;;;;5008528;28;21070;-70
2022/01/07 00:28:10;;;;;;;;;;;3.20;99.90;;;;;;5007411;28;20108;-70
2022/01/07 00:30:37;;;;;;;;;;;3.30;99.90;;;;;;5008503;28;21101;-70
2022/01/07 00:33:05;;;;;;;;;;;3.30;99.90;;;;;;5007895;28;20059;-70
2022/01/07 00:35:32;;;;;;;;;;;3.30;99.90;;;;;;5008896;28;20060;-70
2022/01/07 00:37:59;;;;;;;;;;;3.40;99.90;;;;;;5008222;28;20059;-70
2022/01/07 00:40:27;;;;;;;;;;;3.40;99.90;;;;;;5008327;28;20289;-70
2022/01/07 00:42:54;;;;;;;;;;;3.50;99.90;;;;;;5024371;28;20999;-70
2022/01/07 00:45:23;;;;;;;;;;;3.50;99.90;;;;;;5008149;28;21185;-70
2022/01/07 00:47:51;;;;;;;;;;;3.50;99.90;;;;;;5007197;28;20051;-70
2022/01/07 00:50:19;;;;;;;;;;;3.50;99.90;;;;;;5008340;28;20060;-70
2022/01/07 00:52:47;;;;;;;;;;;3.60;99.90;;;;;;5007315;28;20065;-70
2022/01/07 00:55:14;;;;;;;;;;;3.60;99.90;;;;;;5007857;28;20060;-70
2022/01/07 00:57:41;;;;;;;;;;;3.60;99.90;;;;;;5024200;28;20083;-69
2022/01/07 01:00:10;;;;;;;;;;;3.60;99.90;;;;;;5006690;28;20068;-70
2022/01/07 01:02:38;;;;;;;;;;;3.70;99.90;;;;;;5007773;28;20235;-70
2022/01/07 01:05:07;;;;;;;;;;;3.60;99.90;;;;;;5008130;28;20060;-69
2022/01/07 01:07:34;;;;;;;;;;;3.60;99.90;;;;;;5007263;28;20067;-70
2022/01/07 01:10:01;;;;;;;;;;;3.60;99.90;;;;;;5007829;28;20064;-70
2022/01/07 01:12:29;;;;;;;;;;;3.70;99.90;;;;;;5006011;28;20304;-70
2022/01/07 01:14:57;;;;;;;;;;;3.70;99.90;;;;;;5007202;28;20059;-69
2022/01/07 01:17:24;;;;;;;;;;;3.70;99.90;;;;;;5006859;28;20079;-70
2022/01/07 01:19:52;;;;;;;;;;;3.70;99.90;;;;;;5024261;28;21130;-70
2022/01/07 01:22:20;;;;;;;;;;;3.70;99.90;;;;;;5006196;28;20068;-71
2022/01/07 01:24:47;;;;;;;;;;;3.70;99.90;;;;;;5006778;28;20065;-70
2022/01/07 01:27:14;;;;;;;;;;;3.70;99.90;;;;;;5006630;28;20058;-70
2022/01/07 01:29:41;;;;;;;;;;;3.70;99.90;;;;;;5006044;28;20088;-70
2022/01/07 01:32:08;;;;;;;;;;;3.70;99.90;;;;;;5007330;28;20077;-70
2022/01/07 01:34:35;;;;;;;;;;;3.80;99.90;;;;;;5006607;28;20067;-70
2022/01/07 01:37:05;;;;;;;;;;;3.80;99.90;;;;;;5006798;28;20559;-70
2022/01/07 01:39:32;;;;;;;;;;;3.80;99.90;;;;;;5006474;28;20098;-70
2022/01/07 01:41:59;;;;;;;;;;;3.80;99.90;;;;;;5005791;28;21126;-70
2022/01/07 01:44:26;;;;;;;;;;;3.80;99.90;;;;;;5006955;28;20059;-70
2022/01/07 01:46:53;;;;;;;;;;;3.80;99.90;;;;;;5007114;28;20068;-70
2022/01/07 01:49:20;;;;;;;;;;;3.80;99.90;;;;;;5006893;28;20068;-70
2022/01/07 01:51:48;;;;;;;;;;;3.90;99.90;;;;;;5042342;28;20068;-70
2022/01/07 01:54:17;;;;;;;;;;;3.90;99.90;;;;;;5026662;28;20059;-70
2022/01/07 01:56:44;;;;;;;;;;;3.80;99.90;;;;;;5026170;28;20060;-70
2022/01/07 01:59:11;;;;;;;;;;;3.80;99.90;;;;;;5026125;28;20059;-70
2022/01/07 02:01:40;;;;;;;;;;;3.80;99.90;;;;;;5024807;28;21148;-70
2022/01/07 02:04:07;;;;;;;;;;;3.90;99.90;;;;;;5027342;28;20132;-70
2022/01/07 02:06:36;;;;;;;;;;;3.80;99.90;;;;;;5026906;28;20058;-70
2022/01/07 02:09:03;;;;;;;;;;;3.80;99.90;;;;;;5026252;28;20066;-70
2022/01/07 02:11:34;;;;;;;;;;;3.80;99.90;;;;;;5026269;28;20059;-70
2022/01/07 02:14:01;;;;;;;;;;;3.80;99.90;;;;;;5026383;28;20075;-71
2022/01/07 02:16:28;;;;;;;;;;;3.70;99.90;;;;;;5026535;28;20059;-70
2022/01/07 02:18:55;;;;;;;;;;;3.60;99.90;;;;;;5026514;28;20067;-70
2022/01/07 02:21:25;;;;;;;;;;;3.60;99.90;;;;;;5026787;28;20059;-70
2022/01/07 02:23:52;;;;;;;;;;;3.50;99.90;;;;;;5025905;28;20270;-70
2022/01/07 02:26:20;;;;;;;;;;;3.50;99.90;;;;;;5026149;28;20065;-69
2022/01/07 02:28:49;;;;;;;;;;;3.50;99.90;;;;;;5026162;28;20160;-70
2022/01/07 02:31:17;;;;;;;;;;;3.50;99.90;;;;;;5026832;28;20100;-71
2022/01/07 02:33:44;;;;;;;;;;;3.50;99.90;;;;;;5026423;28;20057;-69
2022/01/07 02:36:12;;;;;;;;;;;3.50;99.90;;;;;;5026292;28;20079;-70
2022/01/07 02:38:41;;;;;;;;;;;3.50;99.90;;;;;;5025738;28;20058;-69
2022/01/07 02:41:08;;;;;;;;;;;3.50;99.90;;;;;;5025947;28;20066;-70
2022/01/07 02:43:35;;;;;;;;;;;3.50;99.90;;;;;;5026322;28;21056;-71
2022/01/07 02:46:03;;;;;;;;;;;3.50;99.90;;;;;;5026705;28;20066;-72
2022/01/07 02:48:30;;;;;;;;;;;3.50;99.90;;;;;;5026206;28;20050;-70
2022/01/07 02:50:57;;;;;;;;;;;3.50;99.90;;;;;;5025981;28;20059;-71
2022/01/07 02:53:24;;;;;;;;;;;3.50;99.90;;;;;;5025549;28;20176;-71
2022/01/07 02:55:52;;;;;;;;;;;3.60;99.90;;;;;;5026287;28;20060;-71
2022/01/07 02:58:19;;;;;;;;;;;3.60;99.90;;;;;;5026023;28;20060;-71
2022/01/07 03:00:46;;;;;;;;;;;3.60;99.90;;;;;;5025635;28;21130;-71
2022/01/07 03:03:13;;;;;;;;;;;3.60;99.90;;;;;;5025586;28;20067;-70
2022/01/07 03:05:42;;;;;;;;;;;3.70;99.90;;;;;;5025283;28;20144;-70
2022/01/07 03:08:09;;;;;;;;;;;3.70;99.90;;;;;;5025950;28;20253;-71
2022/01/07 03:10:36;;;;;;;;;;;3.70;99.90;;;;;;5026492;28;21072;-70
2022/01/07 03:13:05;;;;;;;;;;;3.70;99.90;;;;;;5025875;28;20216;-70
2022/01/07 03:15:34;;;;;;;;;;;3.70;99.90;;;;;;5026272;28;20066;-70
2022/01/07 03:18:01;;;;;;;;;;;3.70;99.90;;;;;;5025060;28;21198;-69
2022/01/07 03:20:28;;;;;;;;;;;3.70;99.90;;;;;;5026086;28;20058;-71
2022/01/07 03:22:56;;;;;;;;;;;3.80;99.90;;;;;;5025856;28;20077;-71
2022/01/07 03:25:23;;;;;;;;;;;3.80;99.90;;;;;;5026160;28;20067;-70
2022/01/07 03:27:50;;;;;;;;;;;3.80;99.90;;;;;;5025331;28;20051;-70
2022/01/07 03:30:20;;;;;;;;;;;3.90;99.90;;;;;;5026037;28;20060;-71
2022/01/07 03:32:47;;;;;;;;;;;3.90;99.90;;;;;;5024805;28;21162;-71
2022/01/07 03:35:16;;;;;;;;;;;3.80;99.90;;;;;;5027648;28;20897;-70
2022/01/07 03:37:43;;;;;;;;;;;3.90;99.90;;;;;;5028750;28;20268;-70
2022/01/07 03:40:11;;;;;;;;;;;3.90;99.90;;;;;;5029520;28;20065;-70
2022/01/07 03:42:38;;;;;;;;;;;4.00;99.90;;;;;;5028783;28;20078;-71
2022/01/07 03:45:05;;;;;;;;;;;4.00;99.90;;;;;;5028995;28;20282;-71
2022/01/07 03:47:34;;;;;;;;;;;4.00;99.90;;;;;;5028987;28;20067;-71
2022/01/07 03:50:01;;;;;;;;;;;4.00;99.90;;;;;;5028920;28;20051;-71
2022/01/07 03:52:28;;;;;;;;;;;4.00;99.90;;;;;;5028663;28;20059;-70
2022/01/07 03:54:55;;;;;;;;;;;4.00;99.90;;;;;;5029104;28;20051;-69
2022/01/07 03:57:22;;;;;;;;;;;4.00;99.90;;;;;;5029302;28;20059;-71
2022/01/07 03:59:50;;;;;;;;;;;4.10;99.90;;;;;;5028818;28;20060;-70
2022/01/07 04:02:18;;;;;;;;;;;4.10;99.90;;;;;;5029310;28;20058;-71
2022/01/07 04:04:47;;;;;;;;;;;4.10;99.90;;;;;;5029595;28;20168;-71
2022/01/07 04:07:14;;;;;;;;;;;4.10;99.90;;;;;;5029420;28;20545;-70
2022/01/07 04:09:41;;;;;;;;;;;4.10;99.90;;;;;;5029272;28;20050;-71
2022/01/07 04:12:09;;;;;;;;;;;4.10;99.90;;;;;;5028650;28;21164;-71
2022/01/07 04:14:36;;;;;;;;;;;4.10;99.90;;;;;;5029584;28;21045;-71
2022/01/07 04:17:03;;;;;;;;;;;4.10;99.90;;;;;;5029561;28;21137;-71
2022/01/07 04:19:30;;;;;;;;;;;4.10;99.90;;;;;;5028972;28;20265;-70
2022/01/07 04:21:59;;;;;;;;;;;4.00;99.90;;;;;;5028751;28;20160;-71
2022/01/07 04:24:26;;;;;;;;;;;4.00;99.90;;;;;;5029071;28;21013;-71
2022/01/07 04:26:54;;;;;;;;;;;4.00;99.90;;;;;;5028553;28;21142;-71
2022/01/07 04:29:21;;;;;;;;;;;4.00;99.90;;;;;;5029349;28;20168;-71
2022/01/07 04:31:48;;;;;;;;;;;3.90;99.90;;;;;;5028809;28;20060;-70
2022/01/07 04:34:15;;;;;;;;;;;3.80;99.90;;;;;;5029472;28;20059;-71
2022/01/07 04:36:42;;;;;;;;;;;3.80;99.90;;;;;;5028718;28;20068;-71
2022/01/07 04:39:11;;;;;;;;;;;3.70;99.90;;;;;;5028144;28;20059;-70
2022/01/07 04:41:38;;;;;;;;;;;3.70;99.90;;;;;;5028639;28;20115;-70
2022/01/07 04:44:05;;;;;;;;;;;3.70;99.90;;;;;;5028781;28;20064;-71
2022/01/07 04:46:32;;;;;;;;;;;3.70;99.90;;;;;;5028696;28;20074;-70
2022/01/07 04:48:59;;;;;;;;;;;3.60;99.90;;;;;;5028946;28;21088;-70
2022/01/07 04:51:26;;;;;;;;;;;3.60;99.90;;;;;;5029121;28;20066;-71
2022/01/07 04:53:53;;;;;;;;;;;3.60;99.90;;;;;;5027976;28;20076;-70
2022/01/07 04:56:22;;;;;;;;;;;3.50;99.90;;;;;;5029556;28;20060;-70
2022/01/07 04:58:49;;;;;;;;;;;3.40;99.90;;;;;;5028778;28;20058;-71
2022/01/07 05:01:16;;;;;;;;;;;3.30;99.90;;;;;;5029012;28;20068;-70
2022/01/07 05:03:43;;;;;;;;;;;3.20;99.90;;;;;;5028333;28;20059;-70
2022/01/07 05:06:38;;;;;;;;;;;3.20;99.90;;;;;;5028412;28;20059;-70
2022/01/07 05:08:59;;;;;;;;;;;3.10;99.90;;;;;;5026436;28;20079;-71
2022/01/07 05:11:28;;;;;;;;;;;3.10;99.90;;;;;;5027781;28;20066;-71
2022/01/07 05:13:55;;;;;;;;;;;3.10;99.90;;;;;;5028075;28;20075;-71
2022/01/07 05:16:24;;;;;;;;;;;3.10;99.90;;;;;;5028247;28;20067;-70
2022/01/07 05:18:51;;;;;;;;;;;3.10;99.90;;;;;;5028009;28;20172;-71
2022/01/07 05:21:18;;;;;;;;;;;3.10;99.90;;;;;;5028118;28;20067;-71
2022/01/07 05:23:45;;;;;;;;;;;3.10;99.90;;;;;;5027592;28;20083;-71
2022/01/07 05:26:12;;;;;;;;;;;3.00;99.90;;;;;;5028274;28;20065;-70
2022/01/07 05:28:40;;;;;;;;;;;2.90;99.90;;;;;;5027888;28;20051;-71
2022/01/07 05:31:07;;;;;;;;;;;2.80;99.90;;;;;;5027638;28;20076;-70
2022/01/07 05:33:34;;;;;;;;;;;2.70;99.90;;;;;;5041838;28;20114;-70
2022/01/07 05:36:02;;;;;;;;;;;2.70;99.90;;;;;;5018155;28;20077;-71
2022/01/07 05:38:29;;;;;;;;;;;2.70;99.90;;;;;;5031715;28;20084;-70
2022/01/07 05:40:56;;;;;;;;;;;2.70;99.90;;;;;;5026858;28;20067;-70
2022/01/07 05:43:23;;;;;;;;;;;2.70;99.90;;;;;;5040649;28;20179;-70
2022/01/07 05:45:52;;;;;;;;;;;2.70;99.90;;;;;;5043962;28;20059;-70
2022/01/07 05:48:19;;;;;;;;;;;2.80;99.90;;;;;;5043235;28;21047;-70
2022/01/07 05:50:46;;;;;;;;;;;2.80;99.90;;;;;;5044286;28;20060;-70
2022/01/07 05:53:13;;;;;;;;;;;2.90;99.90;;;;;;5043397;28;20066;-70
2022/01/07 05:55:40;;;;;;;;;;;2.90;99.90;;;;;;5044385;28;21021;-70
2022/01/07 05:58:07;;;;;;;;;;;3.00;99.90;;;;;;5042790;28;20091;-71
2022/01/07 06:00:35;;;;;;;;;;;3.00;99.90;;;;;;5043058;28;20066;-70
2022/01/07 06:03:04;;;;;;;;;;;3.10;99.90;;;;;;5015557;28;21134;-71
2022/01/07 06:05:31;;;;;;;;;;;3.10;99.90;;;;;;5020453;28;20060;-71
2022/01/07 06:07:58;;;;;;;;;;;3.10;99.90;;;;;;5034752;28;20170;-71
2022/01/07 06:10:25;;;;;;;;;;;3.10;99.90;;;;;;5035853;28;20068;-72
2022/01/07 06:12:52;;;;;;;;;;;3.10;99.90;;;;;;5028818;28;20060;-71
2022/01/07 06:15:19;;;;;;;;;;;3.10;99.90;;;;;;5018422;28;21199;-71
2022/01/07 06:17:46;;;;;;;;;;;3.20;99.90;;;;;;5032456;28;20067;-70
2022/01/07 06:20:18;;;;;;;;;;;3.20;99.90;;;;;;5027446;28;21240;-71
2022/01/07 06:22:45;;;;;;;;;;;3.30;99.90;;;;;;5025587;28;20058;-72
2022/01/07 06:25:12;;;;;;;;;;;3.30;99.90;;;;;;5020193;28;20060;-71
2022/01/07 06:27:40;;;;;;;;;;;3.30;99.90;;;;;;5021363;28;20076;-70
2022/01/07 06:30:08;;;;;;;;;;;3.30;99.90;;;;;;5036951;28;20068;-70
2022/01/07 06:32:35;;;;;;;;;;;3.30;99.90;;;;;;5025302;28;21068;-70
2022/01/07 06:35:02;;;;;;;;;;;3.30;99.90;;;;;;5037256;28;21140;-70
2022/01/07 06:37:31;;;;;;;;;;;3.30;99.90;;;;;;5035675;28;21178;-70
2022/01/07 06:39:58;;;;;;;;;;;3.40;99.90;;;;;;5026436;28;20076;-70
2022/01/07 06:42:25;;;;;;;;;;;3.40;99.90;;;;;;5023873;28;20286;-70
2022/01/07 06:44:52;;;;;;;;;;;3.40;99.90;;;;;;5035116;28;20075;-70
2022/01/07 06:47:19;;;;;;;;;;;3.40;99.90;;;;;;5018403;28;20077;-70
2022/01/07 06:49:46;;;;;;;;;;;3.40;99.90;;;;;;5017687;28;21093;-70
2022/01/07 06:52:14;;;;;;;;;;;3.40;99.90;;;;;;5020819;28;21038;-71
2022/01/07 06:54:42;;;;;;;;;;;3.50;99.90;;;;;;5019677;28;20099;-71
2022/01/07 06:57:09;;;;;;;;;;;3.50;99.90;;;;;;5024073;28;21120;-71
2022/01/07 06:59:37;;;;;;;;;;;3.50;99.90;;;;;;5035657;28;20083;-71
2022/01/07 07:02:04;;;;;;;;;;;3.40;99.90;;;;;;5023091;28;20178;-71
2022/01/07 07:04:31;;;;;;;;;;;3.50;99.90;;;;;;5027223;28;20170;-72
2022/01/07 07:06:58;;;;;;;;;;;3.40;99.90;;;;;;5025847;28;20059;-71
2022/01/07 07:09:25;;;;;;;;;;;3.40;99.90;;;;;;5018209;28;20268;-71
2022/01/07 07:11:54;;;;;;;;;;;3.40;99.90;;;;;;5030483;28;20059;-71
2022/01/07 07:14:21;;;;;;;;;;;3.50;99.90;;;;;;5029165;28;21112;-71
2022/01/07 07:16:48;;;;;;;;;;;3.50;99.90;;;;;;5010548;28;21216;-72
2022/01/07 07:19:15;;;;;;;;;;;3.50;99.90;;;;;;5023146;28;20075;-72
2022/01/07 07:21:43;;;;;;;;;;;3.50;99.90;;;;;;5042343;28;20091;-71
2022/01/07 07:24:10;;;;;;;;;;;3.50;99.90;;;;;;5022306;28;20076;-69
2022/01/07 07:26:38;;;;;;;;;;;3.50;99.90;;;;;;5039875;28;20068;-70
2022/01/07 07:29:07;;;;;;;;;;;3.60;99.90;;;;;;5026393;28;21219;-70
2022/01/07 07:31:38;;;;;;;;;;;3.60;99.90;;;;;;5021451;28;21070;-69
2022/01/07 07:36:48;;;;;;;;;;;3.70;99.90;;;;;;5027516;28;21086;-71
2022/01/07 07:39:16;;;;;;;;;;;3.70;99.90;;;;;;5030090;28;21170;-71
2022/01/07 07:41:43;;;;;;;;;;;3.70;99.90;;;;;;5026852;28;21035;-70
2022/01/07 07:44:12;;;;;;;;;;;3.70;99.90;;;;;;5026555;28;20056;-70
2022/01/07 07:46:40;;;;;;;;;;;3.70;99.90;;;;;;5026535;28;20172;-71
2022/01/07 07:49:08;;;;;;;;;;;3.70;99.90;;;;;;5026809;28;20164;-71
2022/01/07 07:51:35;;;;;;;;;;;3.70;99.90;;;;;;5026799;28;20058;-71
2022/01/07 07:54:03;;;;;;;;;;;3.70;99.90;;;;;;5010255;28;20077;-71
2022/01/07 07:56:30;;;;;;;;;;;3.70;99.90;;;;;;5027789;28;20051;-70
2022/01/07 07:58:58;;;;;;;;;;;3.80;99.90;;;;;;5027379;28;20075;-71
2022/01/07 08:01:27;;;;;;;;;;;3.70;99.90;;;;;;5010803;28;20270;-71
2022/01/07 08:03:55;;;;;;;;;;;3.70;99.90;;;;;;5010095;28;20298;-71
2022/01/07 08:06:22;;;;;;;;;;;3.80;99.90;;;;;;5010129;28;20259;-71
2022/01/07 08:08:49;;;;;;;;;;;3.80;99.90;;;;;;5026102;28;20159;-71
2022/01/07 08:11:16;;;;;;;;;;;3.80;99.90;;;;;;5024040;28;20076;-72
2022/01/07 08:16:28;;;;;;;;;;;3.80;99.90;;;;;;5016730;28;21078;-71
2022/01/07 08:18:56;;;;;;;;;;;3.80;99.90;;;;;;5045198;28;21155;-71
2022/01/07 08:21:25;;;;;;;;;;;3.80;99.90;;;;;;5045867;28;20075;-71
2022/01/07 08:23:53;;;;;;;;;;;3.80;99.90;;;;;;5045701;28;20059;-71
2022/01/07 08:26:20;;;;;;;;;;;3.80;99.90;;;;;;5046198;28;21067;-71
2022/01/07 08:28:50;;;;;;;;;;;3.90;99.90;;;;;;5045142;28;20071;-71
2022/01/07 08:34:52;;;;;;;;;;;3.90;99.90;;;;;;5029260;28;20353;-71
2022/01/07 08:37:00;;;;;;;;;;;3.90;99.90;;;;;;5045669;28;20060;-72
2022/01/07 08:39:27;;;;;;;;;;;3.90;99.90;;;;;;5027835;28;20060;-71
2022/01/07 08:41:54;;;;;;;;;;;3.90;99.90;;;;;;5025757;28;20067;-71
2022/01/07 08:44:23;;;;;;;;;;;4.00;99.90;;;;;;5025865;28;20065;-71
2022/01/07 08:46:51;;;;;;;;;;;4.00;99.90;;;;;;5009385;28;20051;-71
2022/01/07 08:49:20;;;;;;;;;;;4.00;99.90;;;;;;5008296;28;20075;-71
2022/01/07 08:51:48;;;;;;;;;;;4.00;99.90;;;;;;5008457;28;20307;-71
2022/01/07 08:54:15;;;;;;;;;;;4.10;99.90;;;;;;5039733;28;20104;-71
2022/01/07 08:56:42;;;;;;;;;;;4.10;99.90;;;;;;5024814;28;20067;-71
2022/01/07 08:59:09;;;;;;;;;;;4.10;99.90;;;;;;5008152;28;21170;-71
2022/01/07 09:01:36;;;;;;;;;;;4.10;99.90;;;;;;5008768;28;20067;-71
2022/01/07 09:04:03;;;;;;;;;;;4.10;99.90;;;;;;5008662;28;20060;-71
2022/01/07 09:06:32;;;;;;;;;;;4.10;99.90;;;;;;5008276;28;20058;-71
2022/01/07 09:08:59;;;;;;;;;;;4.10;99.90;;;;;;5007534;28;21037;-70
2022/01/07 09:11:26;;;;;;;;;;;4.10;99.90;;;;;;5019891;28;21144;-71
2022/01/07 09:13:53;;;;;;;;;;;4.10;99.90;;;;;;5027474;28;20068;-71
2022/01/07 09:16:23;;;;;;;;;;;4.10;99.90;;;;;;5027778;28;20075;-71
2022/01/07 09:18:50;;;;;;;;;;;4.10;99.90;;;;;;5043566;28;20119;-71
2022/01/07 09:21:17;;;;;;;;;;;4.20;99.90;;;;;;5044569;28;20061;-71
2022/01/07 09:23:46;;;;;;;;;;;4.20;99.90;;;;;;5043573;28;20060;-71
2022/01/07 09:26:13;;;;;;;;;;;4.20;99.90;;;;;;5044291;28;20151;-71
2022/01/07 09:28:40;;;;;;;;;;;4.20;99.90;;;;;;5043314;28;20149;-70
2022/01/07 09:31:07;;;;;;;;;;;4.20;99.90;;;;;;5044181;28;21056;-71
2022/01/07 09:33:34;;;;;;;;;;;4.30;99.90;;;;;;5025680;28;20181;-70
2022/01/07 09:36:02;;;;;;;;;;;4.30;99.90;;;;;;5026531;28;20059;-70
2022/01/07 09:38:29;;;;;;;;;;;4.40;99.90;;;;;;5017406;28;21237;-70
2022/01/07 09:40:59;;;;;;;;;;;4.40;99.90;;;;;;5023661;28;21091;-71
2022/01/07 09:43:26;;;;;;;;;;;4.40;99.90;;;;;;5006997;28;21132;-71
2022/01/07 09:45:54;;;;;;;;;;;4.50;99.90;;;;;;5007014;28;20060;-71
2022/01/07 09:48:21;;;;;;;;;;;4.60;99.90;;;;;;5006525;28;20630;-71
2022/01/07 09:50:48;;;;;;;;;;;4.60;99.90;;;;;;5006956;28;21144;-71
2022/01/07 09:53:15;;;;;;;;;;;4.70;99.90;;;;;;5029263;28;21148;-72
2022/01/07 09:55:43;;;;;;;;;;;4.70;99.90;;;;;;5030467;28;20107;-71
2022/01/07 09:58:13;;;;;;;;;;;4.70;99.90;;;;;;5012687;28;21149;-71
2022/01/07 10:00:42;;;;;;;;;;;4.70;99.90;;;;;;5043606;28;20049;-71
2022/01/07 10:03:09;;;;;;;;;;;4.70;99.90;;;;;;5042834;28;20076;-71
2022/01/07 10:05:40;;;;;;;;;;;4.70;99.90;;;;;;5043732;28;20067;-71
2022/01/07 10:08:18;;;;;;;;;;;4.70;99.90;;;;;;5042277;28;20148;-71
2022/01/07 10:10:45;;;;;;;;;;;4.70;99.90;;;;;;5017654;28;20067;-72
2022/01/07 10:13:19;;;;;;;;;;;4.80;99.90;;;;;;5006462;28;20051;-70
2022/01/07 10:15:46;;;;;;;;;;;5.00;99.90;;;;;;5006980;28;20059;-70
2022/01/07 10:18:14;;;;;;;;;;;5.30;99.90;;;;;;5011721;28;20059;-71
2022/01/07 10:20:43;;;;;;;;;;;5.40;99.90;;;;;;5034413;28;21122;-71
2022/01/07 10:23:11;;;;;;;;;;;5.70;99.90;;;;;;5021319;28;20303;-69
2022/01/07 10:25:39;;;;;;;;;;;6.10;99.90;;;;;;5022551;28;20096;-70
2022/01/07 10:28:06;;;;;;;;;;;6.20;99.90;;;;;;5025049;28;20067;-70
2022/01/07 10:30:36;;;;;;;;;;;6.20;99.90;;;;;;5044626;28;20059;-70
2022/01/07 10:33:15;;;;;;;;;;;6.10;99.90;;;;;;5044035;28;20090;-70
2022/01/07 10:35:43;;;;;;;;;;;6.20;99.90;;;;;;5044616;28;20059;-70
2022/01/07 10:38:14;;;;;;;;;;;6.20;99.90;;;;;;5027444;28;20059;-70
2022/01/07 10:40:42;;;;;;;;;;;6.30;99.90;;;;;;5044494;28;20159;-70
2022/01/07 10:43:10;;;;;;;;;;;6.20;99.90;;;;;;5027073;28;21241;-70
2022/01/07 10:45:40;;;;;;;;;;;6.20;99.90;;;;;;5047756;28;20061;-69
2022/01/07 10:48:07;;;;;;;;;;;6.40;99.90;;;;;;5047920;28;20452;-70
2022/01/07 10:50:37;;;;;;;;;;;6.30;99.90;;;;;;5048727;28;20059;-71
2022/01/07 10:53:14;;;;;;;;;;;6.30;99.90;;;;;;5031618;28;21185;-70
2022/01/07 10:55:41;;;;;;;;;;;7.10;99.90;;;;;;5048809;28;20059;-70
2022/01/07 10:58:09;;;;;;;;;;;9.50;99.90;;;;;;5047768;28;20083;-71
2022/01/07 11:00:37;;;;;;;;;;;9.20;99.90;;;;;;5047946;28;20075;-71
2022/01/07 11:03:09;;;;;;;;;;;9.20;99.90;;;;;;5048416;28;20059;-71
2022/01/07 11:05:36;;;;;;;;;;;10.50;99.90;;;;;;5048746;28;20058;-70
2022/01/07 11:08:03;;;;;;;;;;;10.00;99.90;;;;;;5047738;28;20050;-71
2022/01/07 11:10:31;;;;;;;;;;;9.10;99.90;;;;;;5043265;28;20082;-70
2022/01/07 11:12:58;;;;;;;;;;;8.20;99.90;;;;;;5025897;28;21109;-70
2022/01/07 11:15:25;;;;;;;;;;;7.10;99.90;;;;;;5009375;28;20107;-70
2022/01/07 11:17:52;;;;;;;;;;;6.50;99.90;;;;;;5009527;28;21200;-70
2022/01/07 11:20:24;;;;;;;;;;;6.30;99.90;;;;;;5009621;28;20189;-70
2022/01/07 11:22:51;;;;;;;;;;;6.10;99.90;;;;;;5026244;28;20050;-70
2022/01/07 11:25:18;;;;;;;;;;;5.90;99.90;;;;;;5008560;28;20058;-70
2022/01/07 11:27:50;;;;;;;;;;;5.80;99.90;;;;;;5008845;28;20185;-70
2022/01/07 11:30:18;;;;;;;;;;;5.70;99.90;;;;;;5018043;28;20140;-70
2022/01/07 11:32:45;;;;;;;;;;;5.70;99.90;;;;;;5022194;28;20177;-70
2022/01/07 11:35:49;;;;;;;;;;;5.60;99.90;;;;;;5026979;28;20068;-69
2022/01/07 11:38:37;;;;;;;;;;;5.60;99.90;;;;;;5043540;28;20212;-71
2022/01/07 11:41:09;;;;;;;;;;;5.80;99.90;;;;;;5019294;28;21198;-71
2022/01/07 11:43:39;;;;;;;;;;;6.10;99.90;;;;;;5019986;28;20135;-71
2022/01/07 11:46:25;;;;;;;;;;;6.30;99.90;;;;;;5028302;28;20147;-71
2022/01/07 11:48:54;;;;;;;;;;;6.00;99.90;;;;;;5039917;28;20059;-71
2022/01/07 11:51:21;;;;;;;;;;;5.90;99.90;;;;;;5042591;28;20068;-70
2022/01/07 11:54:02;;;;;;;;;;;5.90;99.90;;;;;;5021380;28;20100;-70
2022/01/07 11:56:31;;;;;;;;;;;5.80;99.90;;;;;;5016227;28;20051;-69
2022/01/07 11:59:00;;;;;;;;;;;5.90;99.90;;;;;;5009572;28;20168;-69
2022/01/07 12:01:28;;;;;;;;;;;5.90;99.90;;;;;;5010471;28;20059;-72
2022/01/07 12:03:56;;;;;;;;;;;5.80;99.90;;;;;;5008894;28;20057;-73
2022/01/07 12:06:44;;;;;;;;;;;5.90;99.90;;;;;;5009754;28;20141;-72
2022/01/07 12:09:16;;;;;;;;;;;5.80;99.90;;;;;;5008665;28;21182;-73
2022/01/07 12:11:46;;;;;;;;;;;5.80;99.90;;;;;;5022627;28;21270;-71
2022/01/07 12:14:15;;;;;;;;;;;5.70;99.90;;;;;;5037366;28;20100;-71
2022/01/07 12:16:43;;;;;;;;;;;5.70;99.90;;;;;;5046364;28;20059;-72
2022/01/07 12:19:26;;;;;;;;;;;6.50;99.90;;;;;;5029019;28;20292;-69
2022/01/07 12:21:54;;;;;;;;;;;7.70;99.90;;;;;;5045984;28;20059;-69
2022/01/07 12:24:22;;;;;;;;;;;7.50;99.90;;;;;;5046356;28;20068;-70
2022/01/07 12:27:03;;;;;;;;;;;7.00;99.90;;;;;;5045207;28;20077;-70
2022/01/07 12:29:31;;;;;;;;;;;6.70;99.90;;;;;;5045572;28;20059;-70
2022/01/07 12:31:58;;;;;;;;;;;6.40;99.90;;;;;;5037985;28;20068;-70
2022/01/07 12:34:26;;;;;;;;;;;6.00;99.90;;;;;;5026485;28;21119;-70
2022/01/07 12:36:56;;;;;;;;;;;5.90;99.90;;;;;;5045524;28;20059;-70
2022/01/07 12:39:26;;;;;;;;;;;5.80;99.90;;;;;;5045768;28;20222;-70
2022/01/07 12:41:55;;;;;;;;;;;5.70;99.90;;;;;;5045749;28;20058;-70
2022/01/07 12:44:24;;;;;;;;;;;5.70;99.90;;;;;;5045942;28;20077;-69
2022/01/07 12:46:53;;;;;;;;;;;5.70;99.90;;;;;;5029037;28;20068;-70
2022/01/07 12:49:20;;;;;;;;;;;5.70;99.90;;;;;;5028365;28;20067;-70
2022/01/07 12:51:59;;;;;;;;;;;5.70;99.90;;;;;;5045070;28;20066;-69
2022/01/07 12:54:26;;;;;;;;;;;5.70;99.90;;;;;;5044241;28;20064;-70
2022/01/07 12:56:53;;;;;;;;;;;5.60;99.90;;;;;;5017681;28;20059;-70
2022/01/07 12:59:21;;;;;;;;;;;5.60;99.90;;;;;;5043955;28;20051;-70
2022/01/07 13:01:50;;;;;;;;;;;5.50;99.90;;;;;;5046687;28;20059;-69
2022/01/07 13:04:19;;;;;;;;;;;5.50;99.90;;;;;;5025120;28;20068;-69
2022/01/07 13:06:46;;;;;;;;;;;5.50;99.90;;;;;;5036803;28;20257;-70
2022/01/07 13:09:14;;;;;;;;;;;5.50;99.90;;;;;;5023048;28;20068;-70
2022/01/07 13:11:42;;;;;;;;;;;5.50;99.90;;;;;;5019199;28;20068;-71
2022/01/07 13:14:10;;;;;;;;;;;5.60;99.90;;;;;;5039386;28;20062;-71
2022/01/07 13:16:38;;;;;;;;;;;5.60;99.90;;;;;;5025471;28;20149;-71
2022/01/07 13:19:07;;;;;;;;;;;5.70;99.90;;;;;;5007519;28;20068;-71
2022/01/07 13:21:35;;;;;;;;;;;6.20;99.90;;;;;;5008070;28;20984;-70
2022/01/07 13:24:02;;;;;;;;;;;6.40;99.90;;;;;;5023109;28;20068;-70
2022/01/07 13:26:30;;;;;;;;;;;6.30;99.90;;;;;;5041486;28;20073;-70
2022/01/07 13:28:59;;;;;;;;;;;6.50;99.90;;;;;;5043535;28;20136;-70
2022/01/07 13:31:30;;;;;;;;;;;6.50;99.90;;;;;;5037120;28;20064;-70
2022/01/07 13:33:57;;;;;;;;;;;6.30;99.90;;;;;;5020455;28;20084;-70
2022/01/07 13:36:34;;;;;;;;;;;6.10;99.90;;;;;;5012892;28;20075;-69
2022/01/07 13:39:01;;;;;;;;;;;6.00;99.90;;;;;;5042017;28;20157;-71
2022/01/07 13:41:28;;;;;;;;;;;5.90;99.90;;;;;;5025967;28;20068;-70
2022/01/07 13:44:02;;;;;;;;;;;5.80;99.90;;;;;;5035826;28;20072;-70
2022/01/07 13:46:29;;;;;;;;;;;5.70;99.90;;;;;;5025658;28;20068;-70
2022/01/07 13:48:58;;;;;;;;;;;5.60;99.90;;;;;;5042427;28;20067;-71
2022/01/07 13:51:28;;;;;;;;;;;5.50;99.90;;;;;;5032614;28;20255;-70
2022/01/07 13:54:08;;;;;;;;;;;5.40;99.90;;;;;;5025968;28;20074;-70
2022/01/07 13:56:36;;;;;;;;;;;5.30;99.90;;;;;;5015301;28;20067;-70
2022/01/07 13:59:04;;;;;;;;;;;5.30;99.90;;;;;;5025468;28;20059;-70
2022/01/07 14:01:31;;;;;;;;;;;5.30;99.90;;;;;;5017221;28;20067;-70
2022/01/07 14:03:58;;;;;;;;;;;5.20;99.90;;;;;;5045298;28;20140;-70
2022/01/07 14:06:27;;;;;;;;;;;5.20;99.90;;;;;;5042422;28;20065;-71
2022/01/07 14:09:09;;;;;;;;;;;5.20;99.90;;;;;;5031212;28;20128;-70
2022/01/07 14:11:36;;;;;;;;;;;5.20;99.90;;;;;;5026996;28;21139;-70
2022/01/07 14:14:12;;;;;;;;;;;5.20;99.90;;;;;;5034122;28;21078;-70
2022/01/07 14:16:44;;;;;;;;;;;5.30;99.90;;;;;;5028491;28;20075;-70
2022/01/07 14:19:11;;;;;;;;;;;5.30;99.90;;;;;;5014431;28;21129;-70
2022/01/07 14:21:39;;;;;;;;;;;5.30;99.90;;;;;;5033468;28;20060;-70
2022/01/07 14:24:06;;;;;;;;;;;5.30;99.90;;;;;;5026376;28;20081;-70
2022/01/07 14:26:43;;;;;;;;;;;5.20;99.90;;;;;;5018208;28;20100;-70
2022/01/07 14:29:13;;;;;;;;;;;5.10;99.90;;;;;;5035665;28;21062;-70
2022/01/07 14:31:40;;;;;;;;;;;5.10;99.90;;;;;;5033415;28;20148;-70
2022/01/07 14:34:07;;;;;;;;;;;5.00;99.90;;;;;;5018048;28;20076;-72
2022/01/07 14:36:35;;;;;;;;;;;5.00;99.90;;;;;;5022849;28;20075;-73
2022/01/07 14:39:04;;;;;;;;;;;4.90;99.90;;;;;;5024052;28;20081;-70
2022/01/07 14:41:31;;;;;;;;;;;4.80;99.90;;;;;;5044542;28;20064;-70
2022/01/07 14:43:58;;;;;;;;;;;4.70;99.90;;;;;;5027879;28;20290;-70
2022/01/07 14:46:26;;;;;;;;;;;4.60;99.90;;;;;;5031416;28;20178;-69